Time;durP1;ratioP1;P1;durP2;ratioP2;P2;SDS_P1;SDS_P2;PMS_P1;PMS_P2;Temp;Humidity;BMP_temperature;BMP_pressure;BME280_temperature;BME280_humidity;BME280_pressure;Samples;Min_cycle;Max_cycle;Signal;HPM_P1;HPM_P2
2021/04/06 00:01:23;;;;;;;5.22;1.30;;;;;;;1.36;61.17;100066.03;6221617;23;20063;-85
2021/04/06 00:03:53;;;;;;;8.35;1.23;;;;;;;1.47;60.27;100068.47;6228353;23;20024;-86
2021/04/06 00:06:21;;;;;;;6.38;1.40;;;;;;;1.43;60.28;100074.63;6238761;23;20038;-85
2021/04/06 00:08:48;;;;;;;8.35;1.27;;;;;;;1.19;61.22;100028.91;6238882;23;20020;-84
2021/04/06 00:11:17;;;;;;;10.20;1.40;;;;;;;1.40;60.95;100057.28;6230705;23;20008;-85
2021/04/06 00:13:46;;;;;;;8.15;1.33;;;;;;;1.47;60.20;100049.34;6235873;23;20016;-85
2021/04/06 00:16:12;;;;;;;7.88;1.20;;;;;;;1.46;59.98;100053.72;6235501;23;20024;-85
2021/04/06 00:18:41;;;;;;;11.80;1.80;;;;;;;1.45;59.73;100048.50;6237597;23;20029;-85
2021/04/06 00:21:08;;;;;;;5.82;1.33;;;;;;;1.34;60.35;100041.72;6234388;23;20035;-85
2021/04/06 00:23:36;;;;;;;5.80;1.30;;;;;;;1.29;60.44;100030.47;6212147;23;20012;-85
2021/04/06 00:26:03;;;;;;;9.68;1.25;;;;;;;1.31;60.40;100035.69;6215190;23;20036;-85
2021/04/06 00:28:34;;;;;;;10.23;1.55;;;;;;;1.24;60.83;100039.28;6213201;23;20005;-86
2021/04/06 00:31:02;;;;;;;5.78;1.75;;;;;;;1.28;60.72;100030.50;6234370;23;20048;-84
2021/04/06 00:33:33;;;;;;;9.05;1.38;;;;;;;1.31;60.21;100027.84;6223431;23;20039;-86
2021/04/06 00:36:02;;;;;;;9.93;1.45;;;;;;;1.40;59.64;100027.72;6219176;23;20508;-85
2021/04/06 00:38:36;;;;;;;8.75;1.35;;;;;;;1.42;59.89;100017.28;6220010;23;20047;-85
2021/04/06 00:41:09;;;;;;;5.97;1.48;;;;;;;1.34;60.37;100023.47;6228233;23;20024;-85
2021/04/06 00:43:38;;;;;;;10.18;1.60;;;;;;;1.34;60.06;100012.16;6235766;23;20027;-84
2021/04/06 00:46:12;;;;;;;4.82;1.40;;;;;;;1.39;60.22;100015.56;6224185;23;20020;-85
2021/04/06 00:48:43;;;;;;;7.10;1.65;;;;;;;1.44;59.96;100020.69;6194199;23;20739;-85
2021/04/06 00:51:12;;;;;;;9.27;1.60;;;;;;;1.36;60.43;100011.25;6188676;23;20099;-85
2021/04/06 00:53:54;;;;;;;10.55;1.63;;;;;;;1.44;59.73;100016.34;6191799;23;20099;-85
2021/04/06 00:56:33;;;;;;;11.63;1.65;;;;;;;1.55;58.94;100016.19;6218024;23;20361;-85
2021/04/06 00:59:02;;;;;;;8.63;1.17;;;;;;;1.52;59.15;100017.09;6216724;23;20509;-85
2021/04/06 01:01:36;;;;;;;11.00;1.80;;;;;;;1.52;59.19;100018.84;6216241;23;20084;-84
2021/04/06 01:04:07;;;;;;;10.32;1.55;;;;;;;1.44;60.39;99998.06;6215115;23;20016;-86
2021/04/06 01:06:52;;;;;;;;;;;;;;;1.49;60.20;100019.75;6219597;23;20351;-84
2021/04/06 01:09:47;;;;;;;11.30;1.45;;;;;;;1.51;60.59;100007.53;6189380;23;19920;-84
2021/04/06 01:12:22;;;;;;;4.30;1.40;;;;;;;1.56;60.67;100016.16;6201679;23;20519;-85
2021/04/06 01:14:51;;;;;;;6.25;1.38;;;;;;;1.57;60.28;100023.13;6226109;23;20036;-86
2021/04/06 01:17:31;;;;;;;6.53;1.52;;;;;;;1.57;60.52;100001.38;6226343;23;20021;-84
2021/04/06 01:20:14;;;;;;;8.52;1.30;;;;;;;1.57;60.43;100006.59;6218617;23;20378;-84
2021/04/06 01:22:47;;;;;;;7.63;1.90;;;;;;;1.53;60.50;99997.94;6216275;23;20024;-84
2021/04/06 01:25:22;;;;;;;7.10;1.60;;;;;;;1.50;60.23;99991.91;6201235;23;20020;-84
2021/04/06 01:28:05;;;;;;;9.13;1.75;;;;;;;1.50;61.14;99990.16;6228742;23;20025;-84
2021/04/06 01:30:50;;;;;;;7.97;1.50;;;;;;;1.51;60.89;99981.44;6237287;23;20016;-85
2021/04/06 01:33:22;;;;;;;8.05;1.73;;;;;;;1.55;60.80;99972.69;6237699;23;20019;-85
2021/04/06 01:35:51;;;;;;;10.00;1.73;;;;;;;1.48;60.71;99978.88;6208655;23;20059;-84
2021/04/06 01:38:19;;;;;;;6.88;1.40;;;;;;;1.50;60.37;99971.03;6230878;23;20119;-85
2021/04/06 01:40:47;;;;;;;6.60;1.20;;;;;;;1.46;60.65;99970.22;6239407;23;20020;-85
2021/04/06 01:43:15;;;;;;;7.30;2.22;;;;;;;1.46;60.74;99964.13;6241720;23;20008;-85
2021/04/06 01:45:44;;;;;;;8.25;1.42;;;;;;;1.58;60.76;99962.16;6237451;23;20039;-86
2021/04/06 01:48:16;;;;;;;5.53;1.50;;;;;;;1.67;60.52;99966.38;6232133;23;20024;-87
2021/04/06 01:50:43;;;;;;;4.93;1.27;;;;;;;1.62;60.83;99968.22;6191272;23;20334;-85
2021/04/06 01:53:12;;;;;;;7.07;1.40;;;;;;;1.65;61.08;99962.94;6219669;23;20021;-84
2021/04/06 01:55:40;;;;;;;4.57;1.15;;;;;;;1.69;61.14;99973.31;6222094;23;20028;-84
2021/04/06 01:58:09;;;;;;;7.78;1.60;;;;;;;1.67;61.38;99967.25;6205259;23;20021;-84
2021/04/06 02:03:11;;;;;;;6.20;1.63;;;;;;;1.73;61.38;99972.34;6234547;23;20032;-83
2021/04/06 02:05:37;;;;;;;9.25;1.67;;;;;;;1.76;61.52;99961.84;6207624;23;20040;-85
2021/04/06 02:08:11;;;;;;;8.70;1.75;;;;;;;1.77;61.48;99967.94;6205992;23;20021;-85
2021/04/06 02:10:37;;;;;;;8.18;1.67;;;;;;;1.75;61.64;99970.56;6230745;23;20035;-83
2021/04/06 02:13:11;;;;;;;7.00;1.83;;;;;;;1.75;61.81;99965.34;6234257;23;20035;-83
2021/04/06 02:15:40;;;;;;;6.75;1.67;;;;;;;1.77;61.90;99965.31;6239607;23;20035;-84
2021/04/06 02:18:07;;;;;;;6.22;2.00;;;;;;;1.78;61.92;99956.59;6232706;23;20019;-85
2021/04/06 02:20:33;;;;;;;10.00;1.83;;;;;;;1.79;62.13;99945.28;6239470;23;20005;-84
2021/04/06 02:23:03;;;;;;;7.65;1.77;;;;;;;1.76;62.55;99940.09;6236947;23;20031;-83
2021/04/06 02:25:32;;;;;;;6.28;1.60;;;;;;;1.81;62.83;99929.59;6229992;23;20071;-84
2021/04/06 02:27:58;;;;;;;6.78;1.63;;;;;;;1.87;63.15;99942.53;6219307;23;20021;-84
2021/04/06 02:30:31;;;;;;;3.13;1.38;;;;;;;1.87;62.62;99945.16;6219900;23;20103;-84
2021/04/06 02:33:02;;;;;;;5.68;1.88;;;;;;;1.99;63.03;99940.53;6207183;23;20020;-84
2021/04/06 02:35:28;;;;;;;8.27;2.10;;;;;;;2.04;63.19;99935.25;6207713;23;20059;-85
2021/04/06 02:37:54;;;;;;;9.63;1.98;;;;;;;2.05;63.77;99943.00;6238661;23;20028;-85
2021/04/06 02:40:22;;;;;;;6.65;1.90;;;;;;;2.04;63.68;99936.09;6239372;23;20028;-85
2021/04/06 02:42:50;;;;;;;6.82;1.85;;;;;;;2.11;63.89;99939.44;6228924;23;20116;-85
2021/04/06 02:45:24;;;;;;;10.88;2.13;;;;;;;2.16;63.83;99945.44;6223918;23;20108;-85
2021/04/06 02:48:09;;;;;;;9.00;1.85;;;;;;;2.12;63.73;99941.16;6226488;23;20013;-85
2021/04/06 02:50:40;;;;;;;6.30;2.00;;;;;;;2.09;63.71;99936.00;6235694;23;20023;-85
2021/04/06 02:53:08;;;;;;;6.28;1.70;;;;;;;2.07;63.73;99937.78;6237684;23;20039;-85
2021/04/06 02:55:38;;;;;;;4.60;1.38;;;;;;;2.03;64.95;99936.13;6207850;23;20488;-86
2021/04/06 02:58:15;;;;;;;7.45;1.90;;;;;;;2.01;65.81;99925.72;6236655;23;20015;-85
2021/04/06 03:00:44;;;;;;;5.60;1.95;;;;;;;1.99;66.13;99926.63;6200655;23;20417;-84
2021/04/06 03:03:28;;;;;;;4.38;1.70;;;;;;;1.98;66.15;99937.97;6223973;23;20035;-84
2021/04/06 03:06:05;;;;;;;7.88;1.90;;;;;;;1.98;66.44;99933.59;6227524;23;20021;-85
2021/04/06 03:08:33;;;;;;;5.47;1.38;;;;;;;1.89;66.93;99931.16;6213611;23;20008;-87
2021/04/06 03:11:00;;;;;;;4.90;1.80;;;;;;;1.81;67.42;99929.59;6240429;23;20008;-84
2021/04/06 03:13:27;;;;;;;7.38;1.58;;;;;;;1.74;68.37;99936.66;6239882;23;20016;-86
2021/04/06 03:15:56;;;;;;;8.63;2.08;;;;;;;1.74;67.58;99929.69;6236417;23;20051;-84
2021/04/06 03:18:31;;;;;;;5.78;2.20;;;;;;;1.68;67.85;99927.22;6236603;23;20005;-85
2021/04/06 03:21:03;;;;;;;5.45;1.63;;;;;;;1.70;68.02;99937.63;6233629;23;20020;-84
2021/04/06 03:23:33;;;;;;;7.40;2.13;;;;;;;1.65;67.79;99935.09;6236637;23;20029;-85
2021/04/06 03:26:02;;;;;;;8.90;2.33;;;;;;;1.69;68.08;99935.91;6240236;23;20024;-84
2021/04/06 03:28:39;;;;;;;6.22;1.75;;;;;;;1.58;67.57;99919.56;6211709;23;20032;-84
2021/04/06 03:31:18;;;;;;;6.78;2.22;;;;;;;1.57;67.69;99921.34;6210905;23;20080;-85
2021/04/06 03:33:48;;;;;;;7.35;2.33;;;;;;;1.56;67.66;99917.00;6238969;23;20024;-85
2021/04/06 03:36:26;;;;;;;6.55;1.83;;;;;;;1.55;67.51;99933.53;6226683;23;20330;-86
2021/04/06 03:38:58;;;;;;;7.28;1.92;;;;;;;1.67;67.66;99943.75;6224421;23;20013;-87
2021/04/06 03:41:32;;;;;;;8.23;2.08;;;;;;;1.65;68.01;99952.50;6234283;23;20020;-87
2021/04/06 03:44:10;;;;;;;9.95;2.28;;;;;;;1.68;67.22;99934.19;6228166;23;20051;-86
2021/04/06 03:46:38;;;;;;;9.98;3.25;;;;;;;1.63;67.57;99936.88;6228139;23;20021;-85
2021/04/06 03:49:32;;;;;;;8.70;2.03;;;;;;;1.62;67.71;99932.53;6221869;23;20521;-86
2021/04/06 03:52:08;;;;;;;6.18;2.00;;;;;;;1.68;68.07;99944.63;6226490;23;20051;-84
2021/04/06 03:54:50;;;;;;;6.10;1.65;;;;;;;1.67;67.16;99928.09;6230884;23;20021;-84
2021/04/06 03:57:33;;;;;;;5.65;1.80;;;;;;;1.63;67.51;99938.59;6198087;23;20067;-88
2021/04/06 04:00:08;;;;;;;7.60;2.00;;;;;;;1.66;67.59;99949.88;6234751;23;20094;-85
2021/04/06 04:02:37;;;;;;;5.63;1.85;;;;;;;1.67;68.02;99955.94;6237489;23;20001;-85
2021/04/06 04:05:05;;;;;;;5.80;1.98;;;;;;;1.65;67.72;99955.97;6232368;23;20036;-85
2021/04/06 04:07:41;;;;;;;9.93;2.58;;;;;;;1.71;67.66;99957.63;6223232;23;20032;-87
2021/04/06 04:10:08;;;;;;;6.55;2.20;;;;;;;1.83;67.71;99967.84;6199585;23;20086;-87
2021/04/06 04:12:35;;;;;;;7.22;2.05;;;;;;;1.89;67.75;99956.44;6239856;23;20045;-86
2021/04/06 04:15:02;;;;;;;9.50;2.17;;;;;;;1.93;67.35;99951.09;6242472;23;20013;-87
2021/04/06 04:17:30;;;;;;;5.80;1.90;;;;;;;2.00;67.25;99957.94;6229874;23;20461;-86
2021/04/06 04:19:56;;;;;;;5.72;2.05;;;;;;;2.02;68.18;99952.69;6229051;23;20031;-86
2021/04/06 04:22:22;;;;;;;6.22;2.15;;;;;;;2.04;69.78;99950.91;6202927;23;20017;-86
2021/04/06 04:24:48;;;;;;;4.55;2.03;;;;;;;2.04;70.20;99920.44;6200747;23;20112;-85
2021/04/06 04:27:14;;;;;;;9.57;2.33;;;;;;;1.98;70.68;99928.38;6229073;23;20466;-86
2021/04/06 04:29:40;;;;;;;5.32;1.92;;;;;;;2.00;71.14;99944.00;6222758;23;20036;-85
2021/04/06 04:32:13;;;;;;;6.95;2.08;;;;;;;2.11;71.23;99929.00;6193175;23;20044;-85
2021/04/06 04:34:40;;;;;;;6.35;2.05;;;;;;;2.15;72.03;99928.03;6218221;23;20075;-85
2021/04/06 04:37:06;;;;;;;11.77;2.40;;;;;;;2.13;73.85;99937.66;6217432;23;20032;-86
2021/04/06 04:39:34;;;;;;;7.50;2.20;;;;;;;2.09;74.60;99938.59;6217506;23;20059;-86
2021/04/06 04:42:01;;;;;;;5.30;2.33;;;;;;;2.06;75.57;99949.09;6214953;23;20017;-86
2021/04/06 04:44:37;;;;;;;6.95;2.42;;;;;;;2.05;76.18;99948.25;6219113;23;20131;-83
2021/04/06 04:47:06;;;;;;;7.07;2.47;;;;;;;1.98;76.43;99941.44;6212477;23;20020;-86
2021/04/06 04:49:32;;;;;;;8.20;2.47;;;;;;;1.94;76.56;99933.69;6220440;23;20021;-85
2021/04/06 04:51:59;;;;;;;9.35;2.90;;;;;;;2.13;76.34;99960.31;6195301;23;20052;-86
2021/04/06 04:54:37;;;;;;;8.25;2.60;;;;;;;2.07;73.64;99945.59;6192350;23;20017;-85
2021/04/06 04:57:06;;;;;;;9.45;2.53;;;;;;;2.09;73.97;99955.13;6219307;23;20166;-85
2021/04/06 04:59:34;;;;;;;5.15;2.30;;;;;;;2.15;73.36;99950.69;6218881;23;20103;-85
2021/04/06 05:02:01;;;;;;;4.60;2.30;;;;;;;2.22;73.16;99963.59;6219615;23;20023;-86
2021/04/06 05:04:29;;;;;;;6.75;2.60;;;;;;;2.31;72.49;99971.25;6222190;23;20102;-85
2021/04/06 05:06:57;;;;;;;4.50;2.20;;;;;;;2.36;72.31;99964.16;6212582;23;20651;-84
2021/04/06 05:09:23;;;;;;;9.48;2.80;;;;;;;2.39;71.17;99951.03;6214399;23;20020;-84
2021/04/06 05:11:49;;;;;;;6.38;2.28;;;;;;;2.44;70.04;99941.34;6220891;23;20028;-84
2021/04/06 05:14:16;;;;;;;7.90;1.92;;;;;;;2.43;70.25;99923.97;6219516;23;20104;-84
2021/04/06 05:16:43;;;;;;;7.22;2.47;;;;;;;2.51;69.97;99943.84;6219092;23;20032;-85
2021/04/06 05:19:09;;;;;;;8.90;2.60;;;;;;;2.54;68.90;99943.75;6214780;23;20020;-86
2021/04/06 05:21:37;;;;;;;8.02;2.38;;;;;;;2.52;68.72;99942.97;6192716;23;20016;-86
2021/04/06 05:24:05;;;;;;;5.63;2.35;;;;;;;2.59;69.27;99939.31;6217154;23;20056;-85
2021/04/06 05:26:46;;;;;;;7.55;2.22;;;;;;;2.64;69.07;99953.16;6169115;23;20025;-85
2021/04/06 05:29:12;;;;;;;5.57;2.00;;;;;;;2.78;68.52;99969.38;6218442;23;20103;-87
2021/04/06 05:31:42;;;;;;;8.23;2.00;;;;;;;2.86;68.87;99969.19;6188656;23;20044;-86
2021/04/06 05:34:10;;;;;;;5.90;2.28;;;;;;;2.88;68.48;99976.13;6195177;23;20024;-85
2021/04/06 05:36:46;;;;;;;6.28;2.20;;;;;;;2.88;68.48;99964.81;6218695;23;20017;-85
2021/04/06 05:39:19;;;;;;;9.60;2.15;;;;;;;2.80;67.88;99967.59;6233432;23;20021;-84
2021/04/06 05:42:21;;;;;;;5.95;2.08;;;;;;;2.82;68.12;99973.66;6233654;23;20925;-87
2021/04/06 05:44:53;;;;;;;6.93;1.90;;;;;;;2.80;67.33;99970.22;6211916;23;20009;-85
2021/04/06 05:47:25;;;;;;;5.32;2.00;;;;;;;2.79;67.98;99968.50;6209147;23;20024;-83
2021/04/06 05:49:54;;;;;;;5.40;2.03;;;;;;;2.83;67.92;99978.00;6236260;23;20024;-85
2021/04/06 05:52:22;;;;;;;6.60;2.88;;;;;;;2.87;67.52;99970.94;6234920;23;20041;-84
2021/04/06 05:54:50;;;;;;;8.60;2.72;;;;;;;3.00;67.23;99981.06;6235681;23;20084;-86
2021/04/06 05:57:19;;;;;;;8.85;2.53;;;;;;;2.97;67.66;99968.09;6238118;23;20017;-86
2021/04/06 05:59:45;;;;;;;8.02;2.40;;;;;;;3.07;67.34;99985.28;6234931;23;20028;-85
2021/04/06 06:02:12;;;;;;;6.47;1.90;;;;;;;3.00;66.90;99977.59;6223922;23;20024;-85
2021/04/06 06:04:38;;;;;;;8.25;2.20;;;;;;;2.99;67.27;99978.50;6220919;23;20715;-85
2021/04/06 06:07:04;;;;;;;7.10;2.03;;;;;;;2.99;67.36;99984.56;6193654;23;20020;-86
2021/04/06 06:09:34;;;;;;;5.75;2.00;;;;;;;3.01;67.32;99984.53;6221479;23;20024;-86
2021/04/06 06:12:09;;;;;;;5.32;1.90;;;;;;;2.97;67.35;99981.16;6224928;23;20017;-82
2021/04/06 06:14:41;;;;;;;7.40;2.15;;;;;;;2.94;67.48;99976.00;6229596;23;20020;-86
2021/04/06 06:17:27;;;;;;;8.93;2.47;;;;;;;3.00;67.57;99993.28;6195163;23;20044;-84
2021/04/06 06:19:59;;;;;;;5.72;2.10;;;;;;;3.02;66.63;99979.28;6216448;23;20533;-85
2021/04/06 06:22:29;;;;;;;10.88;2.88;;;;;;;2.98;66.32;99990.72;6218278;23;20060;-85
2021/04/06 06:25:13;;;;;;;11.40;2.70;;;;;;;3.00;66.03;99974.97;6219668;23;20051;-84
2021/04/06 06:27:43;;;;;;;10.05;2.90;;;;;;;3.00;66.25;99988.91;6222104;23;20104;-88
2021/04/06 06:30:32;;;;;;;6.28;2.42;;;;;;;2.98;66.65;99995.09;6229822;23;20021;-87
2021/04/06 06:33:11;;;;;;;9.80;3.13;;;;;;;3.00;66.98;100009.84;6235211;23;20051;-84
2021/04/06 06:35:39;;;;;;;11.68;2.75;;;;;;;3.01;66.74;100000.25;6234790;23;20033;-87
2021/04/06 06:38:30;;;;;;;5.75;2.22;;;;;;;3.01;66.32;100000.25;6229678;23;20044;-87
2021/04/06 06:41:15;;;;;;;9.10;3.10;;;;;;;3.01;67.19;100006.34;6235130;23;20076;-85
2021/04/06 06:43:43;;;;;;;7.38;2.70;;;;;;;3.14;66.44;100005.19;6210341;23;20013;-85
2021/04/06 06:46:31;;;;;;;10.00;2.65;;;;;;;3.35;65.21;100002.94;6238658;23;20024;-84
2021/04/06 06:49:33;;;;;;;11.10;2.85;;;;;;;3.73;63.71;100008.09;6219023;23;20081;-85
2021/04/06 06:52:00;;;;;;;11.20;2.33;;;;;;;3.80;62.53;100020.13;6214761;23;20009;-85
2021/04/06 06:54:40;;;;;;;8.57;2.30;;;;;;;3.71;63.00;100009.91;6237219;23;20044;-86
2021/04/06 06:57:15;;;;;;;9.73;2.47;;;;;;;3.57;63.10;100016.38;6229283;23;20031;-86
2021/04/06 06:59:46;;;;;;;7.43;2.38;;;;;;;3.46;63.22;100020.09;6221598;23;20033;-85
2021/04/06 07:02:29;;;;;;;8.02;2.80;;;;;;;3.49;63.39;100019.16;6219604;23;20012;-85
2021/04/06 07:05:11;;;;;;;10.32;2.85;;;;;;;3.51;64.17;100020.00;6193280;23;20040;-85
2021/04/06 07:07:54;;;;;;;10.95;2.72;;;;;;;3.62;63.32;100020.59;6225324;23;20028;-84
2021/04/06 07:10:23;;;;;;;8.45;2.70;;;;;;;3.66;62.59;100021.38;6221841;23;20051;-85
2021/04/06 07:13:02;;;;;;;11.35;3.05;;;;;;;3.65;63.01;100014.41;6227640;23;20473;-84
2021/04/06 07:15:31;;;;;;;12.85;3.30;;;;;;;3.65;62.49;100028.38;6220476;23;20021;-84
2021/04/06 07:18:07;;;;;;;14.40;2.42;;;;;;;3.64;62.42;100018.78;6218449;23;20027;-85
2021/04/06 07:20:38;;;;;;;8.98;2.20;;;;;;;3.66;63.42;100018.75;6223710;23;20013;-84
2021/04/06 07:23:09;;;;;;;10.80;2.72;;;;;;;3.66;62.32;100011.75;6229247;23;20020;-84
2021/04/06 07:25:35;;;;;;;9.00;2.80;;;;;;;3.68;62.14;100016.97;6237284;23;20055;-82
2021/04/06 07:28:03;;;;;;;9.48;2.63;;;;;;;3.78;60.27;100023.69;6233073;23;20016;-84
2021/04/06 07:30:31;;;;;;;7.32;2.13;;;;;;;3.74;61.71;100030.78;6229192;23;20040;-85
2021/04/06 07:33:00;;;;;;;11.80;2.88;;;;;;;3.74;61.58;100033.41;6221692;23;20067;-84
2021/04/06 07:35:27;;;;;;;7.75;2.28;;;;;;;3.81;61.07;100040.19;6222782;23;20051;-84
2021/04/06 07:37:53;;;;;;;7.55;2.80;;;;;;;3.86;59.96;100033.09;6195797;23;20036;-83
2021/04/06 07:40:23;;;;;;;5.60;2.50;;;;;;;4.03;59.23;100031.78;6196918;23;20055;-86
2021/04/06 07:43:04;;;;;;;10.20;3.25;;;;;;;4.29;58.70;100045.06;6221535;23;20445;-84
2021/04/06 07:45:38;;;;;;;6.55;2.13;;;;;;;4.43;56.85;100042.91;6222153;23;20020;-83
2021/04/06 07:48:06;;;;;;;9.07;2.08;;;;;;;4.42;56.79;100038.56;6223857;23;20079;-84
2021/04/06 07:50:44;;;;;;;9.93;2.35;;;;;;;4.49;56.77;100045.38;6199116;23;20047;-83
2021/04/06 07:53:29;;;;;;;8.38;2.22;;;;;;;4.66;56.66;100044.03;6231650;23;20421;-84
2021/04/06 07:56:00;;;;;;;10.15;2.53;;;;;;;4.89;56.57;100042.47;6231352;23;20025;-84
2021/04/06 07:58:48;;;;;;;8.25;2.38;;;;;;;5.34;54.36;100044.63;6232729;23;20020;-85
2021/04/06 08:01:29;;;;;;;11.50;2.40;;;;;;;5.63;53.42;100041.06;6206360;23;20400;-84
2021/04/06 08:04:01;;;;;;;11.27;2.38;;;;;;;5.74;52.13;100040.72;6233103;23;20029;-85
2021/04/06 08:06:38;;;;;;;10.65;2.00;;;;;;;5.86;51.65;100035.91;6231580;23;20044;-87
2021/04/06 08:09:32;;;;;;;9.63;2.47;;;;;;;6.14;50.22;100042.91;6234722;23;20021;-88
2021/04/06 08:12:07;;;;;;;7.95;2.15;;;;;;;6.16;49.36;100034.03;6218476;23;20047;-86
2021/04/06 08:14:37;;;;;;;7.28;2.00;;;;;;;6.36;49.39;100043.00;6240265;23;20081;-84
2021/04/06 08:20:01;;;;;;;7.22;2.00;;;;;;;7.40;47.31;100025.00;6240560;23;20013;-86
2021/04/06 08:22:44;;;;;;;6.00;1.50;;;;;;;8.29;44.77;100016.88;6213633;23;20032;-85
2021/04/06 08:25:23;;;;;;;6.45;1.83;;;;;;;9.13;42.02;100022.72;6241863;23;20016;-85
2021/04/06 08:27:57;;;;;;;9.38;1.90;;;;;;;9.63;40.40;100016.81;6215928;23;20009;-84
2021/04/06 08:30:33;;;;;;;6.80;2.15;;;;;;;9.73;40.16;100017.22;6239583;23;20047;-87
2021/04/06 08:33:10;;;;;;;7.93;1.58;;;;;;;9.10;40.30;100016.75;6239402;23;20016;-85
2021/04/06 08:35:49;;;;;;;8.90;1.60;;;;;;;8.58;40.61;100023.56;6235872;23;20048;-86
2021/04/06 08:38:21;;;;;;;6.35;1.33;;;;;;;8.46;41.33;100030.25;6230730;23;20013;-86
2021/04/06 08:40:48;;;;;;;8.43;1.80;;;;;;;8.37;41.63;100020.06;6229447;23;20085;-84
2021/04/06 08:43:25;;;;;;;8.30;1.80;;;;;;;8.14;42.66;100017.56;6210092;23;20016;-88
2021/04/06 08:46:01;;;;;;;8.13;1.90;;;;;;;7.90;42.25;100030.84;6211044;23;20036;-84
2021/04/06 08:48:52;;;;;;;6.65;1.65;;;;;;;7.67;43.44;100033.59;6229165;23;20032;-87
2021/04/06 08:51:28;;;;;;;9.32;2.20;;;;;;;7.37;43.33;100030.41;6240153;23;20021;-85
2021/04/06 08:54:03;;;;;;;11.27;1.95;;;;;;;7.21;44.39;100037.19;6212200;23;20031;-84
2021/04/06 08:56:40;;;;;;;4.60;1.42;;;;;;;7.33;44.91;100037.56;6229104;23;20411;-85
2021/04/06 08:59:30;;;;;;;6.03;1.75;;;;;;;7.37;42.58;100031.28;6230652;23;20005;-85
2021/04/06 09:02:01;;;;;;;9.20;1.65;;;;;;;7.35;43.18;100033.09;6242003;23;20048;-85
2021/04/06 09:04:36;;;;;;;4.60;1.50;;;;;;;7.19;43.30;100025.84;6233326;23;20450;-85
2021/04/06 09:07:22;;;;;;;6.85;1.70;;;;;;;6.92;43.77;100026.00;6222335;23;20106;-85
2021/04/06 09:09:54;;;;;;;4.53;1.60;;;;;;;6.77;44.84;100025.72;6219719;23;20048;-86
2021/04/06 09:12:22;;;;;;;7.78;1.60;;;;;;;6.86;44.90;100013.06;6220082;23;20104;-84
2021/04/06 09:14:49;;;;;;;7.03;1.88;;;;;;;7.06;44.70;100025.47;6222064;23;20071;-85
2021/04/06 09:17:15;;;;;;;7.88;1.77;;;;;;;7.30;44.39;100027.16;6221888;23;20457;-86
2021/04/06 09:19:43;;;;;;;6.88;1.70;;;;;;;7.38;44.37;100019.81;6229901;23;20005;-87
2021/04/06 09:22:14;;;;;;;5.63;1.55;;;;;;;7.40;42.95;99996.88;6237402;23;20021;-86
2021/04/06 09:24:44;;;;;;;3.70;1.30;;;;;;;7.50;42.21;100021.09;6227002;23;20024;-86
2021/04/06 09:27:13;;;;;;;7.18;1.52;;;;;;;7.51;43.33;100016.69;6196219;23;20387;-84
2021/04/06 09:29:48;;;;;;;6.70;1.70;;;;;;;7.43;43.03;100019.59;6229730;23;20024;-86
2021/04/06 09:32:20;;;;;;;4.68;1.42;;;;;;;7.22;44.65;100012.56;6215377;23;20016;-87
2021/04/06 09:34:51;;;;;;;5.10;1.60;;;;;;;7.08;44.93;100018.38;6239702;23;20021;-85
2021/04/06 09:37:28;;;;;;;6.85;1.25;;;;;;;6.98;43.77;100015.22;6202131;23;20044;-85
2021/04/06 09:39:58;;;;;;;6.97;1.70;;;;;;;6.99;44.68;100018.72;6198221;23;20074;-86
2021/04/06 09:42:25;;;;;;;8.50;2.15;;;;;;;7.07;45.15;100021.06;6227772;23;20063;-85
2021/04/06 09:44:53;;;;;;;6.28;1.60;;;;;;;7.08;46.08;100018.38;6229790;23;20024;-84
2021/04/06 09:47:22;;;;;;;3.13;1.50;;;;;;;7.27;46.94;100018.50;6226497;23;20048;-84
2021/04/06 09:49:54;;;;;;;5.43;1.58;;;;;;;7.67;45.21;100018.63;6221451;23;20874;-86
2021/04/06 09:52:29;;;;;;;4.60;1.38;;;;;;;7.81;45.06;100019.84;6224875;23;20039;-83
2021/04/06 09:54:59;;;;;;;7.53;2.33;;;;;;;7.60;44.48;100024.19;6198848;23;20023;-86
2021/04/06 09:57:33;;;;;;;5.97;1.63;;;;;;;7.32;44.68;100014.78;6197602;23;20020;-86
2021/04/06 10:00:00;;;;;;;4.28;1.73;;;;;;;7.15;44.26;100006.69;6225793;23;20092;-84
2021/04/06 10:02:29;;;;;;;2.80;1.23;;;;;;;7.06;43.96;100014.09;6225232;23;20039;-87
2021/04/06 10:04:57;;;;;;;3.45;1.42;;;;;;;6.99;43.77;100018.72;6223562;23;20028;-85
2021/04/06 10:07:34;;;;;;;5.85;1.42;;;;;;;6.87;44.65;100027.94;6233072;23;20023;-85
2021/04/06 10:10:18;;;;;;;5.30;1.50;;;;;;;6.81;45.86;100035.19;6238212;23;20022;-87
2021/04/06 10:12:46;;;;;;;2.72;1.00;;;;;;;6.68;42.88;100027.78;6239358;23;20016;-84
2021/04/06 10:15:20;;;;;;;3.05;1.10;;;;;;;6.64;42.08;100013.00;6179950;23;20027;-85
2021/04/06 10:17:47;;;;;;;5.63;1.20;;;;;;;7.09;42.07;100014.81;6229110;23;20431;-85
2021/04/06 10:20:37;;;;;;;6.07;1.20;;;;;;;7.59;41.46;100018.06;6202772;23;20076;-86
2021/04/06 10:23:04;;;;;;;2.97;1.13;;;;;;;7.65;40.65;100003.78;6224666;23;20051;-84
2021/04/06 10:25:41;;;;;;;4.22;1.20;;;;;;;7.33;39.52;100013.84;6219617;23;20104;-85
2021/04/06 10:28:19;;;;;;;3.58;1.30;;;;;;;6.86;40.61;100001.69;6194605;23;20016;-86
2021/04/06 10:30:58;;;;;;;3.92;1.17;;;;;;;6.63;40.80;100000.75;6216113;23;20027;-85
2021/04/06 10:33:32;;;;;;;5.75;1.98;;;;;;;6.96;40.13;99998.63;6220608;23;20016;-83
2021/04/06 10:36:04;;;;;;;4.03;1.27;;;;;;;7.43;39.37;99990.63;6223359;23;20339;-83
2021/04/06 10:38:40;;;;;;;6.63;1.55;;;;;;;7.93;38.47;99993.81;6199953;23;20592;-83
2021/04/06 10:41:14;;;;;;;4.88;1.17;;;;;;;8.21;37.32;99976.78;6193847;23;20043;-83
2021/04/06 10:43:43;;;;;;;4.18;1.40;;;;;;;8.21;38.35;99977.66;6219353;23;20017;-82
2021/04/06 10:46:15;;;;;;;5.63;1.70;;;;;;;8.28;37.99;99963.28;6194413;23;20024;-82
2021/04/06 10:48:49;;;;;;;3.53;1.30;;;;;;;8.59;37.82;99973.34;6194626;23;20071;-84
2021/04/06 10:51:24;;;;;;;4.55;1.75;;;;;;;8.57;37.19;99961.13;6201849;23;20021;-83
2021/04/06 10:54:07;;;;;;;3.63;1.40;;;;;;;8.52;37.15;99949.91;6206739;23;20162;-81
2021/04/06 10:56:58;;;;;;;5.40;1.52;;;;;;;8.59;37.31;99949.59;6238172;23;20081;-86
2021/04/06 10:59:45;;;;;;;6.03;1.17;;;;;;;8.47;37.32;99952.78;6215158;23;20026;-86
2021/04/06 11:02:24;;;;;;;4.50;1.40;;;;;;;8.03;39.67;99966.13;6224968;23;20023;-85
2021/04/06 11:04:51;;;;;;;6.50;1.65;;;;;;;7.52;42.02;99953.38;6200042;23;20070;-83
2021/04/06 11:07:28;;;;;;;3.97;1.42;;;;;;;7.13;43.71;99953.22;6223577;23;20016;-84
2021/04/06 11:10:07;;;;;;;3.65;1.40;;;;;;;6.79;43.49;99948.41;6224779;23;20047;-84
2021/04/06 11:12:34;;;;;;;3.50;1.38;;;;;;;6.72;43.99;99946.09;6225313;23;20031;-85
2021/04/06 11:15:01;;;;;;;3.40;1.60;;;;;;;6.93;43.98;99945.25;6228767;23;20036;-85
2021/04/06 11:17:28;;;;;;;5.00;1.73;;;;;;;6.94;43.54;99939.06;6206029;23;20016;-87
2021/04/06 11:20:10;;;;;;;6.97;1.60;;;;;;;6.88;43.87;99937.53;6226080;23;20332;-84
2021/04/06 11:22:40;;;;;;;3.78;1.30;;;;;;;6.84;43.70;99942.97;6226129;23;20020;-84
2021/04/06 11:25:19;;;;;;;3.25;1.50;;;;;;;6.87;43.51;99938.47;6225749;23;20083;-83
2021/04/06 11:27:50;;;;;;;3.90;1.55;;;;;;;7.14;43.76;99933.00;6228335;23;20031;-83
2021/04/06 11:30:17;;;;;;;5.13;1.50;;;;;;;7.35;42.28;99937.41;6234058;23;20012;-85
2021/04/06 11:32:48;;;;;;;4.97;1.60;;;;;;;7.49;42.56;99931.56;6238150;23;20027;-83
2021/04/06 11:35:59;;;;;;;4.75;1.60;;;;;;;7.71;41.33;99929.75;6236611;23;20020;-83
2021/04/06 11:38:26;;;;;;;4.05;1.20;;;;;;;7.73;39.46;99923.47;6233948;23;20017;-83
2021/04/06 11:40:54;;;;;;;5.63;1.20;;;;;;;7.53;39.14;99915.59;6229249;23;20023;-83
2021/04/06 11:43:22;;;;;;;3.70;1.20;;;;;;;7.37;39.33;99907.47;6230027;23;20468;-86
2021/04/06 11:45:48;;;;;;;4.15;1.25;;;;;;;7.56;39.70;99909.31;6235502;23;20020;-85
2021/04/06 11:48:14;;;;;;;7.72;1.40;;;;;;;7.90;38.61;99904.28;6235934;23;20083;-85
2021/04/06 11:50:41;;;;;;;2.08;1.13;;;;;;;8.25;37.65;99909.78;6235062;23;20021;-84
2021/04/06 11:53:07;;;;;;;4.50;1.75;;;;;;;8.79;37.31;99894.09;6237846;23;20024;-82
2021/04/06 11:55:36;;;;;;;4.65;1.30;;;;;;;9.24;36.10;99882.22;6237493;23;20025;-85
2021/04/06 11:58:03;;;;;;;4.97;1.30;;;;;;;9.40;36.09;99888.44;6237797;23;20064;-84
2021/04/06 12:00:31;;;;;;;2.25;1.10;;;;;;;9.30;35.36;99892.47;6239885;23;20025;-84
2021/04/06 12:02:58;;;;;;;2.97;1.30;;;;;;;9.14;36.25;99907.34;6241719;23;20024;-85
2021/04/06 12:05:26;;;;;;;3.67;0.90;;;;;;;8.88;38.66;99905.97;6242198;23;20004;-86
2021/04/06 12:07:52;;;;;;;5.03;1.40;;;;;;;8.58;40.28;99899.50;6241364;23;20020;-83